Time;durP1;ratioP1;P1;durP2;ratioP2;P2;SDS_P1;SDS_P2;PMS_P1;PMS_P2;Temp;Humidity;BMP_temperature;BMP_pressure;BME280_temperature;BME280_humidity;BME280_pressure;Samples;Min_cycle;Max_cycle;Signal;HPM_P1;HPM_P2
2021/05/07 00:00:06;;;;;;;0.60;0.60;;;;;;;;;;5118389;28;20222;-41
2021/05/07 00:02:32;;;;;;;1.38;0.70;;;;;;;;;;5088955;28;20197;-41
2021/05/07 00:04:58;;;;;;;0.70;0.60;;;;;;;;;;5106980;28;20181;-41
2021/05/07 00:07:24;;;;;;;0.93;0.70;;;;;;;;;;5099966;28;20192;-41
2021/05/07 00:09:50;;;;;;;0.63;0.57;;;;;;;;;;5118327;28;20423;-41
2021/05/07 00:12:16;;;;;;;0.77;0.45;;;;;;;;;;5117186;28;20177;-41
2021/05/07 00:14:42;;;;;;;0.70;0.70;;;;;;;;;;5117002;28;20200;-41
2021/05/07 00:17:08;;;;;;;0.63;0.63;;;;;;;;;;5117766;28;20260;-41
2021/05/07 00:19:34;;;;;;;0.50;0.50;;;;;;;;;;5117928;28;20166;-41
2021/05/07 00:22:00;;;;;;;0.63;0.60;;;;;;;;;;5116963;28;20189;-41
2021/05/07 00:24:26;;;;;;;0.55;0.50;;;;;;;;;;5117676;28;20298;-41
2021/05/07 00:26:52;;;;;;;0.68;0.60;;;;;;;;;;5117587;28;20231;-41
2021/05/07 00:29:18;;;;;;;0.60;0.60;;;;;;;;;;5115938;28;20220;-41
2021/05/07 00:31:44;;;;;;;0.50;0.50;;;;;;;;;;5117074;28;20204;-41
2021/05/07 00:34:10;;;;;;;0.63;0.63;;;;;;;;;;5117165;28;20205;-41
2021/05/07 00:36:36;;;;;;;0.68;0.68;;;;;;;;;;5115845;28;20183;-41
2021/05/07 00:39:03;;;;;;;0.70;0.70;;;;;;;;;;5117359;28;20173;-41
2021/05/07 00:41:28;;;;;;;0.70;0.50;;;;;;;;;;5116274;28;20181;-41
2021/05/07 00:43:56;;;;;;;0.60;0.60;;;;;;;;;;5117633;28;20169;-41
2021/05/07 00:46:22;;;;;;;0.60;0.50;;;;;;;;;;5117373;28;20264;-41
2021/05/07 00:48:48;;;;;;;0.50;0.50;;;;;;;;;;5116534;28;20227;-41
2021/05/07 00:51:15;;;;;;;1.25;0.57;;;;;;;;;;5114985;28;20555;-41
2021/05/07 00:53:41;;;;;;;0.60;0.55;;;;;;;;;;5117009;28;20161;-41
2021/05/07 00:56:07;;;;;;;0.60;0.60;;;;;;;;;;5117022;28;20204;-41
2021/05/07 00:58:33;;;;;;;1.10;0.50;;;;;;;;;;5116918;28;20184;-41
2021/05/07 01:00:59;;;;;;;0.50;0.50;;;;;;;;;;5116410;28;20468;-41
2021/05/07 01:03:25;;;;;;;0.43;0.43;;;;;;;;;;5116075;28;20556;-41
2021/05/07 01:05:51;;;;;;;0.73;0.60;;;;;;;;;;5116369;28;20177;-41
2021/05/07 01:08:18;;;;;;;0.65;0.52;;;;;;;;;;5116744;28;20181;-41
2021/05/07 01:10:44;;;;;;;1.55;0.47;;;;;;;;;;5115637;28;20173;-41
2021/05/07 01:13:11;;;;;;;0.50;0.50;;;;;;;;;;5116838;28;20185;-41
2021/05/07 01:15:37;;;;;;;1.42;0.50;;;;;;;;;;5116868;28;20605;-41
2021/05/07 01:18:03;;;;;;;0.50;0.50;;;;;;;;;;5099536;28;20189;-41
2021/05/07 01:20:30;;;;;;;0.60;0.60;;;;;;;;;;5112515;28;20238;-41
2021/05/07 01:22:57;;;;;;;0.45;0.45;;;;;;;;;;5116641;28;20176;-41
2021/05/07 01:25:25;;;;;;;0.75;0.75;;;;;;;;;;5109552;28;20522;-41
2021/05/07 01:27:53;;;;;;;0.45;0.45;;;;;;;;;;5116832;28;20169;-41
2021/05/07 01:30:20;;;;;;;0.50;0.50;;;;;;;;;;5115871;28;20180;-41
2021/05/07 01:32:47;;;;;;;0.50;0.50;;;;;;;;;;5115491;28;20224;-41
2021/05/07 01:35:15;;;;;;;0.50;0.50;;;;;;;;;;5116575;28;20203;-41
2021/05/07 01:37:45;;;;;;;0.73;0.50;;;;;;;;;;5116592;28;20193;-41
2021/05/07 01:40:15;;;;;;;1.75;0.60;;;;;;;;;;5114745;28;20602;-41
2021/05/07 01:42:41;;;;;;;0.55;0.50;;;;;;;;;;5112179;28;20670;-41
2021/05/07 01:45:07;;;;;;;0.50;0.50;;;;;;;;;;5115869;28;20229;-41
2021/05/07 01:47:33;;;;;;;1.02;0.60;;;;;;;;;;5116215;28;20533;-41
2021/05/07 01:49:59;;;;;;;0.50;0.50;;;;;;;;;;5115982;28;20177;-41
2021/05/07 01:52:26;;;;;;;0.40;0.40;;;;;;;;;;5114857;28;20169;-41
2021/05/07 01:54:52;;;;;;;0.82;0.50;;;;;;;;;;5115530;28;20204;-41
2021/05/07 01:57:18;;;;;;;0.40;0.40;;;;;;;;;;5115739;28;20192;-41
2021/05/07 01:59:44;;;;;;;0.60;0.40;;;;;;;;;;5115029;28;20169;-41
2021/05/07 02:02:10;;;;;;;0.73;0.50;;;;;;;;;;5110814;28;20330;-41
2021/05/07 02:04:36;;;;;;;0.60;0.60;;;;;;;;;;5103107;28;20567;-41
2021/05/07 02:07:02;;;;;;;0.55;0.47;;;;;;;;;;5115813;28;20176;-41
2021/05/07 02:09:28;;;;;;;0.43;0.40;;;;;;;;;;5115300;28;20181;-41
2021/05/07 02:11:54;;;;;;;0.70;0.68;;;;;;;;;;5112539;28;20210;-41
2021/05/07 02:14:20;;;;;;;0.38;0.38;;;;;;;;;;5103625;28;20582;-41
2021/05/07 02:16:46;;;;;;;0.82;0.60;;;;;;;;;;5095575;28;20170;-41
2021/05/07 02:19:12;;;;;;;0.50;0.50;;;;;;;;;;5110258;28;20177;-40
2021/05/07 02:21:38;;;;;;;0.45;0.43;;;;;;;;;;5115103;28;20181;-41
2021/05/07 02:24:04;;;;;;;0.60;0.60;;;;;;;;;;5114970;28;20220;-41
2021/05/07 02:26:30;;;;;;;0.40;0.40;;;;;;;;;;5112764;28;20212;-41
2021/05/07 02:28:56;;;;;;;0.85;0.60;;;;;;;;;;5102725;28;20544;-41
2021/05/07 02:31:22;;;;;;;0.75;0.75;;;;;;;;;;5114062;28;20259;-41
2021/05/07 02:33:48;;;;;;;0.85;0.60;;;;;;;;;;5113929;28;20264;-41
2021/05/07 02:36:14;;;;;;;0.65;0.60;;;;;;;;;;5095122;28;20170;-41
2021/05/07 02:38:41;;;;;;;0.52;0.52;;;;;;;;;;5097479;28;20226;-41
2021/05/07 02:41:07;;;;;;;0.60;0.50;;;;;;;;;;5112342;28;20180;-41
2021/05/07 02:43:33;;;;;;;0.45;0.45;;;;;;;;;;5111662;28;20683;-41
2021/05/07 02:45:59;;;;;;;0.40;0.40;;;;;;;;;;5114941;28;20189;-41
2021/05/07 02:48:25;;;;;;;0.50;0.50;;;;;;;;;;5115247;28;20255;-41
2021/05/07 02:50:51;;;;;;;0.40;0.40;;;;;;;;;;5107856;28;20177;-41
2021/05/07 02:53:17;;;;;;;0.50;0.50;;;;;;;;;;5114147;28;20180;-41
2021/05/07 02:55:43;;;;;;;0.47;0.38;;;;;;;;;;5114612;28;20590;-41
2021/05/07 02:58:09;;;;;;;0.43;0.43;;;;;;;;;;5114767;28;20421;-41
2021/05/07 03:00:35;;;;;;;0.40;0.40;;;;;;;;;;5113738;28;20193;-41
2021/05/07 03:03:01;;;;;;;0.50;0.50;;;;;;;;;;5113689;28;20490;-40
2021/05/07 03:05:27;;;;;;;0.50;0.50;;;;;;;;;;5114887;28;20180;-41
2021/05/07 03:07:53;;;;;;;0.40;0.40;;;;;;;;;;5115209;28;20187;-41
2021/05/07 03:10:20;;;;;;;0.40;0.40;;;;;;;;;;5114503;28;20627;-40
2021/05/07 03:12:46;;;;;;;0.30;0.30;;;;;;;;;;5105853;28;20622;-41
2021/05/07 03:15:12;;;;;;;0.60;0.60;;;;;;;;;;5094612;28;20197;-41
2021/05/07 03:17:38;;;;;;;1.00;0.47;;;;;;;;;;5094802;28;20561;-41
2021/05/07 03:20:05;;;;;;;0.43;0.43;;;;;;;;;;5110132;28;20599;-41
2021/05/07 03:22:31;;;;;;;0.50;0.50;;;;;;;;;;5108650;28;20200;-41
2021/05/07 03:24:57;;;;;;;0.40;0.40;;;;;;;;;;5114739;28;20615;-41
2021/05/07 03:27:23;;;;;;;0.43;0.43;;;;;;;;;;5111583;28;20734;-41
2021/05/07 03:29:49;;;;;;;0.40;0.40;;;;;;;;;;5114422;28;20189;-41
2021/05/07 03:32:15;;;;;;;0.50;0.50;;;;;;;;;;5095785;28;20181;-41
2021/05/07 03:34:41;;;;;;;0.50;0.50;;;;;;;;;;5114241;28;20201;-41
2021/05/07 03:37:07;;;;;;;0.40;0.40;;;;;;;;;;5114821;28;20200;-41
2021/05/07 03:39:33;;;;;;;1.45;0.50;;;;;;;;;;5114263;28;20447;-41
2021/05/07 03:41:59;;;;;;;0.50;0.50;;;;;;;;;;5112558;28;20184;-41
2021/05/07 03:44:25;;;;;;;0.28;0.28;;;;;;;;;;5108274;28;20509;-41
2021/05/07 03:46:51;;;;;;;0.38;0.35;;;;;;;;;;5114920;28;20273;-41
2021/05/07 03:49:17;;;;;;;0.40;0.40;;;;;;;;;;5112983;28;20455;-41
2021/05/07 03:51:43;;;;;;;0.40;0.40;;;;;;;;;;5114122;28;20173;-41
2021/05/07 03:54:09;;;;;;;2.55;0.40;;;;;;;;;;5117192;28;20192;-41
2021/05/07 03:56:35;;;;;;;0.70;0.50;;;;;;;;;;5118074;28;20182;-41
2021/05/07 03:59:01;;;;;;;0.43;0.40;;;;;;;;;;5118163;28;20165;-41
2021/05/07 04:01:27;;;;;;;0.47;0.40;;;;;;;;;;5117865;28;20180;-41
2021/05/07 04:03:53;;;;;;;0.45;0.40;;;;;;;;;;5102250;28;20575;-41
2021/05/07 04:06:21;;;;;;;0.40;0.40;;;;;;;;;;5097884;28;20166;-41
2021/05/07 04:14:15;;;;;;;63.53;13.93;;;;;;;;;;5102191;28;20242;-41
2021/05/07 04:16:41;;;;;;;47.50;10.73;;;;;;;;;;5112130;28;20189;-41
2021/05/07 04:19:07;;;;;;;42.63;8.32;;;;;;;;;;5117381;28;20181;-41
2021/05/07 04:21:33;;;;;;;33.47;7.63;;;;;;;;;;5117213;28;20192;-41
2021/05/07 04:23:58;;;;;;;28.83;6.47;;;;;;;;;;5108933;28;20576;-41
2021/05/07 04:26:24;;;;;;;25.63;6.22;;;;;;;;;;5117506;28;20184;-40
2021/05/07 04:28:50;;;;;;;46.75;11.63;;;;;;;;;;5117582;28;20195;-40
2021/05/07 04:31:16;;;;;;;51.47;9.65;;;;;;;;;;5115412;28;20425;-40
2021/05/07 04:33:42;;;;;;;94.05;20.13;;;;;;;;;;5103515;28;20170;-40
2021/05/07 04:36:08;;;;;;;83.53;19.17;;;;;;;;;;5098836;28;20197;-40
2021/05/07 04:38:36;;;;;;;77.72;18.48;;;;;;;;;;5099244;28;20176;-40
2021/05/07 04:41:02;;;;;;;85.40;18.35;;;;;;;;;;5114291;28;20173;-40
2021/05/07 04:43:28;;;;;;;71.82;15.70;;;;;;;;;;5105758;28;20810;-40
2021/05/07 04:45:54;;;;;;;71.10;15.77;;;;;;;;;;5097232;28;20166;-40
2021/05/07 04:48:20;;;;;;;51.25;13.65;;;;;;;;;;5114962;28;20205;-40
2021/05/07 04:50:46;;;;;;;54.17;14.77;;;;;;;;;;5116179;28;20196;-40
2021/05/07 04:53:12;;;;;;;65.97;14.30;;;;;;;;;;5117286;28;20174;-40
2021/05/07 04:55:38;;;;;;;59.22;14.45;;;;;;;;;;5116517;28;20306;-40
2021/05/07 04:58:04;;;;;;;59.50;13.70;;;;;;;;;;5117004;28;20180;-40
2021/05/07 05:00:31;;;;;;;49.40;12.73;;;;;;;;;;5115803;28;20192;-40
2021/05/07 05:02:57;;;;;;;57.30;12.68;;;;;;;;;;5095590;28;20162;-41
2021/05/07 05:05:23;;;;;;;43.38;12.32;;;;;;;;;;5095645;28;20592;-40
2021/05/07 05:07:50;;;;;;;42.47;12.05;;;;;;;;;;5096774;28;20177;-40
2021/05/07 05:10:17;;;;;;;43.63;11.60;;;;;;;;;;5104513;28;20315;-40
2021/05/07 05:12:43;;;;;;;40.90;12.18;;;;;;;;;;5112618;28;20205;-40
2021/05/07 05:15:09;;;;;;;39.83;10.85;;;;;;;;;;5116712;28;20193;-40
2021/05/07 05:17:35;;;;;;;32.90;10.77;;;;;;;;;;5104238;28;20252;-40
2021/05/07 05:20:03;;;;;;;39.72;10.13;;;;;;;;;;5110394;28;20176;-40
2021/05/07 05:22:29;;;;;;;36.50;10.85;;;;;;;;;;5101602;28;20177;-40
2021/05/07 05:24:55;;;;;;;39.20;11.02;;;;;;;;;;5116633;28;20200;-40
2021/05/07 05:27:21;;;;;;;37.05;11.18;;;;;;;;;;5116073;28;20396;-41
2021/05/07 05:29:47;;;;;;;32.58;10.02;;;;;;;;;;5112715;28;20232;-41
2021/05/07 05:32:13;;;;;;;34.85;10.65;;;;;;;;;;5115826;28;20721;-40
2021/05/07 05:34:39;;;;;;;29.70;10.05;;;;;;;;;;5116439;28;20209;-40
2021/05/07 05:37:05;;;;;;;30.15;9.80;;;;;;;;;;5116502;28;20162;-40
2021/05/07 05:39:32;;;;;;;37.10;10.27;;;;;;;;;;5115398;28;20177;-40
2021/05/07 05:41:58;;;;;;;26.95;8.88;;;;;;;;;;5115378;28;20185;-40
2021/05/07 05:44:24;;;;;;;25.90;9.10;;;;;;;;;;5103228;28;20181;-40
2021/05/07 05:46:50;;;;;;;28.98;9.07;;;;;;;;;;5116141;28;20590;-40
2021/05/07 05:49:16;;;;;;;30.15;9.13;;;;;;;;;;5114872;28;20284;-40
2021/05/07 05:51:42;;;;;;;24.35;7.47;;;;;;;;;;5110131;28;20226;-40
2021/05/07 05:54:08;;;;;;;25.33;8.27;;;;;;;;;;5115844;28;20185;-40
2021/05/07 05:56:34;;;;;;;20.15;7.88;;;;;;;;;;5115702;28;20484;-40
2021/05/07 05:59:00;;;;;;;25.98;9.00;;;;;;;;;;5098369;28;20168;-40
2021/05/07 06:01:26;;;;;;;24.98;8.60;;;;;;;;;;5112487;28;20265;-40
2021/05/07 06:03:52;;;;;;;22.75;7.95;;;;;;;;;;5111102;28;20189;-40
2021/05/07 06:06:18;;;;;;;25.50;7.05;;;;;;;;;;5115768;28;20219;-40
2021/05/07 06:08:44;;;;;;;20.90;7.20;;;;;;;;;;5115598;28;20182;-40
2021/05/07 06:11:10;;;;;;;16.77;6.75;;;;;;;;;;5104026;28;20181;-40
2021/05/07 06:13:36;;;;;;;20.63;7.13;;;;;;;;;;5115096;28;20210;-40
2021/05/07 06:16:02;;;;;;;20.02;7.82;;;;;;;;;;5115403;28;20567;-40
2021/05/07 06:18:28;;;;;;;22.88;7.22;;;;;;;;;;5114104;28;20212;-41
2021/05/07 06:20:54;;;;;;;18.38;6.55;;;;;;;;;;5100003;28;20273;-40
2021/05/07 06:23:22;;;;;;;15.57;6.25;;;;;;;;;;5105226;28;20556;-40
2021/05/07 06:25:48;;;;;;;17.65;6.30;;;;;;;;;;5115187;28;20273;-40
2021/05/07 06:28:14;;;;;;;17.70;6.97;;;;;;;;;;5115566;28;20272;-41
2021/05/07 06:30:40;;;;;;;18.73;6.30;;;;;;;;;;5107645;28;20181;-40
2021/05/07 06:33:06;;;;;;;15.02;6.55;;;;;;;;;;5114945;28;20185;-40
2021/05/07 06:35:32;;;;;;;16.55;5.90;;;;;;;;;;5115642;28;20215;-40
2021/05/07 06:37:59;;;;;;;14.88;6.18;;;;;;;;;;5115301;28;20253;-40
2021/05/07 06:40:25;;;;;;;16.77;6.00;;;;;;;;;;5114157;28;21591;-41
2021/05/07 06:42:51;;;;;;;13.75;5.43;;;;;;;;;;5108700;28;20202;-40
2021/05/07 06:45:17;;;;;;;14.88;5.47;;;;;;;;;;5094857;28;20176;-40
2021/05/07 06:47:43;;;;;;;14.93;5.25;;;;;;;;;;5108222;28;20173;-41
2021/05/07 06:50:11;;;;;;;13.95;5.05;;;;;;;;;;5107168;28;20177;-40
2021/05/07 06:52:37;;;;;;;15.30;5.13;;;;;;;;;;5094512;28;20248;-40
2021/05/07 06:55:04;;;;;;;15.02;5.20;;;;;;;;;;5106127;28;20651;-40
2021/05/07 06:57:30;;;;;;;11.98;4.80;;;;;;;;;;5114894;28;20177;-40
2021/05/07 06:59:56;;;;;;;11.43;4.95;;;;;;;;;;5114664;28;20421;-40
2021/05/07 07:02:22;;;;;;;14.48;5.03;;;;;;;;;;5114669;28;20161;-40
2021/05/07 07:04:47;;;;;;;12.57;5.35;;;;;;;;;;5115068;28;20184;-40
2021/05/07 07:07:14;;;;;;;10.77;4.57;;;;;;;;;;5115094;28;20575;-40
2021/05/07 07:09:40;;;;;;;15.70;5.25;;;;;;;;;;5114245;28;20674;-40
2021/05/07 07:12:06;;;;;;;11.18;4.50;;;;;;;;;;5113769;28;20242;-40
2021/05/07 07:14:37;;;;;;;11.25;4.47;;;;;;;;;;5115016;28;20307;-40
2021/05/07 07:17:03;;;;;;;12.52;4.47;;;;;;;;;;5114927;28;20226;-40
2021/05/07 07:19:30;;;;;;;10.88;4.45;;;;;;;;;;5113442;28;20176;-40
2021/05/07 07:21:56;;;;;;;7.63;4.03;;;;;;;;;;5106811;28;20181;-40
2021/05/07 07:24:22;;;;;;;7.90;3.97;;;;;;;;;;5104079;28;20430;-41
2021/05/07 07:26:48;;;;;;;10.57;4.28;;;;;;;;;;5114601;28;20177;-40
2021/05/07 07:29:14;;;;;;;9.57;4.13;;;;;;;;;;5118903;28;20181;-40
2021/05/07 07:31:40;;;;;;;8.93;4.22;;;;;;;;;;5116521;28;20536;-41
2021/05/07 07:34:06;;;;;;;8.73;3.97;;;;;;;;;;5118937;28;20195;-40
2021/05/07 07:36:32;;;;;;;5.97;3.65;;;;;;;;;;5119015;28;20169;-40
2021/05/07 07:38:58;;;;;;;8.63;3.80;;;;;;;;;;5111693;28;20174;-40
2021/05/07 07:41:24;;;;;;;7.55;3.60;;;;;;;;;;5111939;28;20173;-40
2021/05/07 07:43:50;;;;;;;9.98;3.95;;;;;;;;;;5118501;28;20496;-40
2021/05/07 07:46:16;;;;;;;7.40;3.92;;;;;;;;;;5118641;28;20184;-40
2021/05/07 07:48:42;;;;;;;7.28;3.88;;;;;;;;;;5118493;28;20591;-40
2021/05/07 07:51:08;;;;;;;6.72;3.28;;;;;;;;;;5117342;28;20185;-40
2021/05/07 07:53:34;;;;;;;7.00;3.08;;;;;;;;;;5118488;28;20237;-40
2021/05/07 07:56:00;;;;;;;8.70;3.50;;;;;;;;;;5117643;28;20207;-40
2021/05/07 07:58:26;;;;;;;5.95;2.95;;;;;;;;;;5118650;28;20211;-40
2021/05/07 08:00:54;;;;;;;7.25;3.47;;;;;;;;;;5106936;28;20198;-40
2021/05/07 08:03:20;;;;;;;5.72;3.10;;;;;;;;;;5118476;28;20161;-40
2021/05/07 08:05:46;;;;;;;7.22;3.47;;;;;;;;;;5117970;28;20173;-40
2021/05/07 08:08:12;;;;;;;5.63;2.97;;;;;;;;;;5118424;28;20252;-40
2021/05/07 08:10:38;;;;;;;7.25;3.10;;;;;;;;;;5116305;28;20181;-40
2021/05/07 08:13:04;;;;;;;5.63;2.63;;;;;;;;;;5117876;28;20250;-40
2021/05/07 08:15:30;;;;;;;5.53;2.60;;;;;;;;;;5118204;28;20228;-40
2021/05/07 08:17:57;;;;;;;6.63;3.10;;;;;;;;;;5117883;28;20560;-40
2021/05/07 08:20:24;;;;;;;4.13;2.63;;;;;;;;;;5110281;28;20193;-40
2021/05/07 08:22:50;;;;;;;7.53;3.35;;;;;;;;;;5100404;28;20165;-40
2021/05/07 08:25:16;;;;;;;6.13;2.65;;;;;;;;;;5117160;28;20184;-40
2021/05/07 08:27:43;;;;;;;5.15;2.75;;;;;;;;;;5117831;28;20169;-40
2021/05/07 08:30:10;;;;;;;5.35;2.40;;;;;;;;;;5112032;28;20190;-40
2021/05/07 08:32:36;;;;;;;7.13;2.88;;;;;;;;;;5100889;28;20208;-40
2021/05/07 08:35:02;;;;;;;5.43;2.53;;;;;;;;;;5117636;28;20217;-40
2021/05/07 08:37:28;;;;;;;5.28;2.42;;;;;;;;;;5117663;28;20165;-40
2021/05/07 08:39:54;;;;;;;3.67;2.03;;;;;;;;;;5112244;28;20216;-40
2021/05/07 08:42:21;;;;;;;6.40;2.83;;;;;;;;;;5115177;28;20255;-40
2021/05/07 08:44:50;;;;;;;5.50;2.42;;;;;;;;;;5117667;28;20197;-40
2021/05/07 08:47:17;;;;;;;4.18;2.40;;;;;;;;;;5115466;28;20272;-41
2021/05/07 08:49:43;;;;;;;3.88;2.13;;;;;;;;;;5112983;28;20197;-40
2021/05/07 08:52:09;;;;;;;4.07;2.08;;;;;;;;;;5116417;28;20193;-40
2021/05/07 08:54:35;;;;;;;3.25;2.35;;;;;;;;;;5117215;28;20224;-41
2021/05/07 08:57:01;;;;;;;7.05;2.15;;;;;;;;;;5116602;28;20552;-41
2021/05/07 08:59:27;;;;;;;4.10;2.30;;;;;;;;;;5104468;28;20178;-41
2021/05/07 09:01:53;;;;;;;4.35;2.47;;;;;;;;;;5102330;28;20446;-40
2021/05/07 09:04:20;;;;;;;4.47;2.25;;;;;;;;;;5116935;28;20177;-40
2021/05/07 09:09:29;;;;;;;3.95;2.33;;;;;;;;;;5116702;28;20188;-40
2021/05/07 09:11:59;;;;;;;3.53;2.00;;;;;;;;;;5116123;28;20177;-40
2021/05/07 09:14:26;;;;;;;3.78;1.92;;;;;;;;;;5116836;28;20197;-41
2021/05/07 09:16:53;;;;;;;3.47;1.98;;;;;;;;;;5113896;28;20192;-40
2021/05/07 09:19:24;;;;;;;4.10;1.85;;;;;;;;;;5096138;28;20178;-40
2021/05/07 09:21:50;;;;;;;3.05;1.85;;;;;;;;;;5108706;28;20249;-40
2021/05/07 09:24:17;;;;;;;5.20;1.95;;;;;;;;;;5116907;28;20162;-40
2021/05/07 09:26:44;;;;;;;2.70;1.83;;;;;;;;;;5110504;28;20548;-40
2021/05/07 09:29:17;;;;;;;4.05;2.00;;;;;;;;;;5104555;28;20205;-40
2021/05/07 09:31:48;;;;;;;3.30;1.85;;;;;;;;;;5095460;28;20170;-40
2021/05/07 09:34:15;;;;;;;3.10;1.92;;;;;;;;;;5096000;28;20479;-41
2021/05/07 09:36:41;;;;;;;2.90;1.90;;;;;;;;;;5111893;28;20187;-40
2021/05/07 09:39:16;;;;;;;3.20;1.65;;;;;;;;;;5115964;28;20173;-40
2021/05/07 09:41:46;;;;;;;3.38;1.85;;;;;;;;;;5115432;28;20177;-40
2021/05/07 09:44:16;;;;;;;3.17;1.77;;;;;;;;;;5115863;28;20215;-41
2021/05/07 09:46:42;;;;;;;3.50;1.60;;;;;;;;;;5100667;28;20204;-41
2021/05/07 09:49:08;;;;;;;3.67;1.90;;;;;;;;;;5111075;28;20217;-41
2021/05/07 09:51:40;;;;;;;2.25;1.60;;;;;;;;;;5115140;28;20169;-40
2021/05/07 09:54:07;;;;;;;2.80;1.70;;;;;;;;;;5115137;28;20188;-41
2021/05/07 09:56:34;;;;;;;2.42;1.40;;;;;;;;;;5115966;28;20170;-40
2021/05/07 09:59:01;;;;;;;1.80;1.17;;;;;;;;;;5115391;28;20188;-41
2021/05/07 10:01:27;;;;;;;2.20;1.42;;;;;;;;;;5115586;28;20158;-40
2021/05/07 10:03:57;;;;;;;2.45;1.65;;;;;;;;;;5115498;28;20450;-40
2021/05/07 10:06:24;;;;;;;2.00;1.50;;;;;;;;;;5115837;28;20467;-40
2021/05/07 10:08:50;;;;;;;3.15;1.70;;;;;;;;;;5115839;28;20179;-41
2021/05/07 10:11:18;;;;;;;2.75;1.60;;;;;;;;;;5114516;28;20256;-40
2021/05/07 10:13:45;;;;;;;2.28;1.58;;;;;;;;;;5115147;28;20165;-40
2021/05/07 10:16:11;;;;;;;2.20;1.20;;;;;;;;;;5115863;28;20224;-40
2021/05/07 10:18:38;;;;;;;2.30;1.60;;;;;;;;;;5115797;28;20169;-40
2021/05/07 10:21:05;;;;;;;2.17;1.30;;;;;;;;;;5115116;28;20188;-40
2021/05/07 10:23:32;;;;;;;1.83;1.30;;;;;;;;;;5114906;28;20185;-40
2021/05/07 10:25:59;;;;;;;2.13;1.40;;;;;;;;;;5115021;28;20184;-41
2021/05/07 10:28:25;;;;;;;2.08;1.45;;;;;;;;;;5107089;28;20603;-40
2021/05/07 10:31:02;;;;;;;1.73;1.25;;;;;;;;;;5098412;28;20257;-40
2021/05/07 10:33:28;;;;;;;2.03;1.40;;;;;;;;;;5096897;28;20178;-40
2021/05/07 10:35:54;;;;;;;2.17;1.33;;;;;;;;;;5115476;28;20189;-40
2021/05/07 10:38:21;;;;;;;1.50;1.10;;;;;;;;;;5115179;28;20169;-40
2021/05/07 10:40:50;;;;;;;2.28;1.25;;;;;;;;;;5113722;28;20184;-41
2021/05/07 10:43:16;;;;;;;1.83;1.40;;;;;;;;;;5115109;28;20212;-40
2021/05/07 10:45:46;;;;;;;1.98;1.20;;;;;;;;;;5115362;28;20212;-40
2021/05/07 10:48:19;;;;;;;2.65;1.30;;;;;;;;;;5108331;28;20205;-40
2021/05/07 10:50:46;;;;;;;1.38;1.13;;;;;;;;;;5114849;28;20180;-40
2021/05/07 10:53:23;;;;;;;1.52;1.17;;;;;;;;;;5115062;28;20339;-40
2021/05/07 10:55:49;;;;;;;2.42;1.42;;;;;;;;;;5114586;28;20250;-41
2021/05/07 10:58:15;;;;;;;2.70;1.33;;;;;;;;;;5109847;28;20226;-40
2021/05/07 11:00:41;;;;;;;1.60;1.23;;;;;;;;;;5114686;28;20169;-40
2021/05/07 11:03:18;;;;;;;1.30;1.00;;;;;;;;;;5114204;28;20165;-41
2021/05/07 11:05:48;;;;;;;1.27;1.00;;;;;;;;;;5114966;28;20918;-41
2021/05/07 11:08:14;;;;;;;1.15;1.05;;;;;;;;;;5114379;28;20191;-40
2021/05/07 11:10:40;;;;;;;1.83;1.10;;;;;;;;;;5113646;28;20177;-41
2021/05/07 11:13:07;;;;;;;2.08;1.40;;;;;;;;;;5114873;28;20180;-40
2021/05/07 11:15:34;;;;;;;1.40;1.13;;;;;;;;;;5115055;28;20193;-41
2021/05/07 11:18:06;;;;;;;0.98;0.90;;;;;;;;;;5108185;28;20255;-41
2021/05/07 11:20:33;;;;;;;2.50;1.10;;;;;;;;;;5094063;28;20242;-40
2021/05/07 11:23:00;;;;;;;2.45;1.42;;;;;;;;;;5106611;28;20495;-40
2021/05/07 11:25:26;;;;;;;1.90;1.15;;;;;;;;;;5114610;28;20187;-41
2021/05/07 11:27:52;;;;;;;1.25;0.98;;;;;;;;;;5111314;28;20230;-41
2021/05/07 11:30:18;;;;;;;1.10;1.00;;;;;;;;;;5114383;28;20556;-41
2021/05/07 11:32:45;;;;;;;1.30;1.00;;;;;;;;;;5113500;28;20215;-40
2021/05/07 11:35:12;;;;;;;1.00;0.90;;;;;;;;;;5114645;28;20305;-40
2021/05/07 11:37:39;;;;;;;1.48;1.05;;;;;;;;;;5114207;28;20177;-40
2021/05/07 11:40:07;;;;;;;1.33;1.20;;;;;;;;;;5109230;28;20188;-40
2021/05/07 11:42:34;;;;;;;1.63;1.20;;;;;;;;;;5112233;28;20176;-41
2021/05/07 11:45:01;;;;;;;1.67;0.93;;;;;;;;;;5114627;28;20165;-41
2021/05/07 11:47:31;;;;;;;0.80;0.80;;;;;;;;;;5112024;28;20189;-40
2021/05/07 11:49:57;;;;;;;1.63;1.00;;;;;;;;;;5114821;28;20184;-40
2021/05/07 11:52:42;;;;;;;2.00;1.30;;;;;;;;;;5114053;28;20177;-40
2021/05/07 11:55:23;;;;;;;1.80;1.10;;;;;;;;;;5114042;28;20197;-41
2021/05/07 11:58:03;;;;;;;6.25;1.20;;;;;;;;;;5104722;28;20173;-40
2021/05/07 12:00:30;;;;;;;3.70;1.20;;;;;;;;;;5113475;28;20176;-40
2021/05/07 12:03:00;;;;;;;2.90;1.10;;;;;;;;;;5110101;28;20170;-40
2021/05/07 12:05:30;;;;;;;3.50;1.33;;;;;;;;;;5114460;28;20555;-40
2021/05/07 12:07:56;;;;;;;1.80;1.08;;;;;;;;;;5099187;28;20284;-41
2021/05/07 12:10:27;;;;;;;2.83;1.20;;;;;;;;;;5113336;28;20220;-41
2021/05/07 12:12:57;;;;;;;2.10;1.02;;;;;;;;;;5114318;28;20162;-41
2021/05/07 12:15:25;;;;;;;1.65;0.80;;;;;;;;;;5118309;28;20685;-41
2021/05/07 12:17:52;;;;;;;3.10;1.00;;;;;;;;;;5107330;28;20181;-40
2021/05/07 12:20:19;;;;;;;3.47;1.48;;;;;;;;;;5117654;28;20177;-41
2021/05/07 12:22:47;;;;;;;2.75;0.95;;;;;;;;;;5117380;28;20180;-40
2021/05/07 12:25:17;;;;;;;3.33;1.20;;;;;;;;;;5117554;28;20191;-41
2021/05/07 12:27:44;;;;;;;3.03;1.05;;;;;;;;;;5110799;28;20260;-41
2021/05/07 12:30:19;;;;;;;3.75;1.10;;;;;;;;;;5117980;28;20169;-40
2021/05/07 12:32:56;;;;;;;1.70;1.00;;;;;;;;;;5116914;28;20249;-41
2021/05/07 12:35:22;;;;;;;4.10;1.00;;;;;;;;;;5117699;28;20197;-41
2021/05/07 12:37:48;;;;;;;5.45;1.00;;;;;;;;;;5116511;28;20173;-41
2021/05/07 12:40:14;;;;;;;1.75;0.98;;;;;;;;;;5115960;28;20544;-41
2021/05/07 12:42:40;;;;;;;1.30;1.08;;;;;;;;;;5116401;28;20180;-41
2021/05/07 12:45:06;;;;;;;1.48;1.20;;;;;;;;;;5110053;28;20201;-40
2021/05/07 12:47:32;;;;;;;1.05;0.77;;;;;;;;;;5097494;28;20201;-41
2021/05/07 12:49:59;;;;;;;2.30;1.00;;;;;;;;;;5109929;28;20205;-41
2021/05/07 12:52:25;;;;;;;1.92;1.17;;;;;;;;;;5115762;28;20173;-40
2021/05/07 12:54:51;;;;;;;2.58;1.05;;;;;;;;;;5116236;28;20211;-41
2021/05/07 12:57:17;;;;;;;2.45;1.10;;;;;;;;;;5104733;28;20260;-40
2021/05/07 12:59:43;;;;;;;2.35;1.05;;;;;;;;;;5117478;28;20169;-41
2021/05/07 13:02:09;;;;;;;1.50;0.80;;;;;;;;;;5108483;28;20178;-40
2021/05/07 13:04:34;;;;;;;1.42;1.00;;;;;;;;;;5097072;28;20252;-40
2021/05/07 13:07:00;;;;;;;2.42;1.20;;;;;;;;;;5100224;28;20185;-40
2021/05/07 13:09:26;;;;;;;4.43;1.17;;;;;;;;;;5114838;28;20253;-41
2021/05/07 13:11:52;;;;;;;3.13;1.27;;;;;;;;;;5116184;28;20615;-40
2021/05/07 13:14:19;;;;;;;2.90;1.10;;;;;;;;;;5116284;28;20205;-40
2021/05/07 13:16:45;;;;;;;2.70;0.82;;;;;;;;;;5112184;28;20239;-41
2021/05/07 13:19:11;;;;;;;1.88;0.80;;;;;;;;;;5106020;28;20181;-40
2021/05/07 13:21:36;;;;;;;1.35;0.80;;;;;;;;;;5115972;28;20185;-40
2021/05/07 13:24:03;;;;;;;0.90;0.90;;;;;;;;;;5109923;28;20179;-40
2021/05/07 13:26:29;;;;;;;2.33;1.15;;;;;;;;;;5115505;28;20188;-41
2021/05/07 13:28:59;;;;;;;1.73;1.02;;;;;;;;;;5116745;28;20434;-41
2021/05/07 13:31:26;;;;;;;1.58;1.05;;;;;;;;;;5114043;28;20169;-40
2021/05/07 13:33:52;;;;;;;2.00;1.08;;;;;;;;;;5115561;28;20482;-40
2021/05/07 13:36:18;;;;;;;2.15;0.90;;;;;;;;;;5116512;28;20596;-41
2021/05/07 13:38:45;;;;;;;0.70;0.70;;;;;;;;;;5116161;28;20198;-40
2021/05/07 13:41:11;;;;;;;1.25;0.95;;;;;;;;;;5118516;27;20174;-40
2021/05/07 13:43:38;;;;;;;1.33;0.70;;;;;;;;;;5117208;27;20189;-41
2021/05/07 13:46:04;;;;;;;0.98;0.70;;;;;;;;;;5115245;28;20189;-40
2021/05/07 13:48:30;;;;;;;2.92;1.00;;;;;;;;;;5116247;28;20177;-40
2021/05/07 13:50:56;;;;;;;0.98;0.85;;;;;;;;;;5116015;27;20200;-40
2021/05/07 13:53:22;;;;;;;3.00;1.08;;;;;;;;;;5126401;27;20205;-41
2021/05/07 13:55:48;;;;;;;1.58;0.70;;;;;;;;;;5116060;27;20286;-41
2021/05/07 13:58:14;;;;;;;2.58;0.63;;;;;;;;;;5112556;28;20222;-41
2021/05/07 14:00:41;;;;;;;1.38;0.90;;;;;;;;;;5114465;28;20181;-41
2021/05/07 14:03:07;;;;;;;1.13;0.68;;;;;;;;;;5082935;28;20182;-40
2021/05/07 14:05:33;;;;;;;2.83;0.77;;;;;;;;;;5104793;28;20266;-40
2021/05/07 14:07:59;;;;;;;2.15;0.85;;;;;;;;;;5112059;28;20185;-40
2021/05/07 14:10:25;;;;;;;1.38;0.90;;;;;;;;;;5114968;28;20178;-41
2021/05/07 14:12:52;;;;;;;1.98;0.90;;;;;;;;;;5114862;28;20177;-41
2021/05/07 14:15:18;;;;;;;2.92;0.90;;;;;;;;;;5114976;28;20619;-40
2021/05/07 14:17:45;;;;;;;2.53;0.75;;;;;;;;;;5095817;28;20179;-41
2021/05/07 14:20:11;;;;;;;4.32;0.80;;;;;;;;;;5115701;28;20160;-40
2021/05/07 14:22:37;;;;;;;1.52;1.00;;;;;;;;;;5101783;28;20284;-41
2021/05/07 14:25:04;;;;;;;0.93;0.68;;;;;;;;;;5105094;28;20268;-40
2021/05/07 14:27:30;;;;;;;0.82;0.70;;;;;;;;;;5114740;28;20501;-40
2021/05/07 14:29:56;;;;;;;2.60;0.73;;;;;;;;;;5114794;28;20204;-40
2021/05/07 14:32:22;;;;;;;1.30;1.00;;;;;;;;;;5112037;28;20181;-40
2021/05/07 14:34:48;;;;;;;2.15;1.00;;;;;;;;;;5111091;28;20208;-41
2021/05/07 14:37:14;;;;;;;1.15;0.73;;;;;;;;;;5103019;28;20544;-42
2021/05/07 14:39:42;;;;;;;1.13;0.90;;;;;;;;;;5112891;28;20176;-42
2021/05/07 14:42:08;;;;;;;3.60;0.95;;;;;;;;;;5114264;28;20169;-41